Time;durP1;ratioP1;P1;durP2;ratioP2;P2;SDS_P1;SDS_P2;PMS_P1;PMS_P2;Temp;Humidity;BMP_temperature;BMP_pressure;BME280_temperature;BME280_humidity;BME280_pressure;Samples;Min_cycle;Max_cycle;Signal;HPM_P1;HPM_P2
2022/08/24 00:00:39;;;;;;;20.95;10.68;;;;;;;18.31;85.44;93726.09;5064634;28;20021;-81
2022/08/24 00:03:06;;;;;;;16.42;11.40;;;;;;;18.30;85.07;93729.91;5063333;28;20024;-82
2022/08/24 00:05:31;;;;;;;18.52;10.52;;;;;;;18.28;85.06;93729.50;5064327;28;20021;-82
2022/08/24 00:07:57;;;;;;;20.10;11.82;;;;;;;18.25;84.99;93729.09;5064293;28;20139;-81
2022/08/24 00:10:22;;;;;;;23.40;10.68;;;;;;;18.22;84.40;93732.53;5064318;28;20021;-82
2022/08/24 00:12:49;;;;;;;18.75;10.98;;;;;;;18.13;84.20;93734.69;5063124;28;20033;-82
2022/08/24 00:15:15;;;;;;;18.80;10.73;;;;;;;18.02;84.61;93739.16;5064211;28;20025;-82
2022/08/24 00:17:41;;;;;;;19.77;10.82;;;;;;;17.92;85.78;93739.78;5064307;28;20192;-82
2022/08/24 00:20:08;;;;;;;24.73;12.05;;;;;;;17.83;86.57;93746.22;5064210;28;20017;-82
2022/08/24 00:22:34;;;;;;;15.38;11.07;;;;;;;17.77;86.84;93754.94;5064153;28;20016;-82
2022/08/24 00:25:00;;;;;;;19.98;12.60;;;;;;;17.64;87.84;93763.19;5063824;28;20223;-81
2022/08/24 00:27:26;;;;;;;16.67;12.00;;;;;;;17.57;88.47;93762.31;5063831;28;20036;-81
2022/08/24 00:29:52;;;;;;;24.42;12.45;;;;;;;17.46;88.63;93772.88;5063801;28;20107;-82
2022/08/24 00:32:18;;;;;;;22.85;13.45;;;;;;;17.38;89.45;93769.31;5063723;28;20037;-81
2022/08/24 00:34:43;;;;;;;21.58;12.68;;;;;;;17.35;89.82;93775.41;5062504;28;20081;-81
2022/08/24 00:37:09;;;;;;;29.50;14.10;;;;;;;17.29;89.88;93774.13;5063543;28;20024;-81
2022/08/24 00:39:34;;;;;;;24.23;13.50;;;;;;;17.29;90.03;93771.44;5063854;28;20032;-81
2022/08/24 00:41:59;;;;;;;29.05;14.27;;;;;;;17.29;90.38;93774.13;5063670;28;20021;-81
2022/08/24 00:44:25;;;;;;;24.17;15.02;;;;;;;17.25;90.27;93779.44;5063799;28;20020;-81
2022/08/24 00:47:12;;;;;;;21.05;14.60;;;;;;;17.26;90.56;93766.78;5063595;28;20335;-82
2022/08/24 00:49:53;;;;;;;24.48;14.30;;;;;;;17.27;90.56;93776.41;5063582;28;20053;-82
2022/08/24 00:52:24;;;;;;;30.83;13.73;;;;;;;17.26;90.46;93769.47;5063549;28;20044;-83
2022/08/24 00:55:01;;;;;;;22.58;13.93;;;;;;;17.29;90.56;93773.38;5063225;28;20025;-83
2022/08/24 00:57:33;;;;;;;23.13;14.52;;;;;;;17.31;90.60;93779.94;5062250;28;20029;-83
2022/08/24 01:00:22;;;;;;;22.98;12.80;;;;;;;17.35;90.50;93774.63;5063355;28;20032;-83
2022/08/24 01:02:52;;;;;;;26.50;14.07;;;;;;;17.34;90.10;93773.84;5063225;28;20096;-80
2022/08/24 01:05:18;;;;;;;23.25;14.70;;;;;;;17.36;89.93;93778.88;5063186;28;20021;-80
2022/08/24 01:11:11;;;;;;;25.17;15.07;;;;;;;17.38;90.32;93782.78;5063208;28;20341;-81
2022/08/24 01:13:38;;;;;;;22.45;13.55;;;;;;;17.43;90.59;93784.38;5062095;28;20031;-82
2022/08/24 01:16:07;;;;;;;20.80;14.18;;;;;;;17.49;90.44;93787.56;5062975;28;20226;-82
2022/08/24 01:18:49;;;;;;;21.15;13.75;;;;;;;17.55;89.30;93791.53;5063225;28;20044;-82
2022/08/24 01:21:25;;;;;;;27.20;17.50;;;;;;;17.58;89.73;93798.88;5061978;28;20219;-81
2022/08/24 01:23:57;;;;;;;26.85;15.63;;;;;;;17.60;89.73;93799.31;5062731;28;20037;-82
2022/08/24 01:26:25;;;;;;;26.17;15.83;;;;;;;17.65;90.03;93813.28;5062859;28;20035;-81
2022/08/24 01:29:01;;;;;;;24.00;13.82;;;;;;;17.70;89.64;93809.50;5062878;28;20515;-81
2022/08/24 01:31:27;;;;;;;21.23;13.10;;;;;;;17.76;89.83;93813.44;5062818;28;20024;-81
2022/08/24 01:33:53;;;;;;;24.42;13.73;;;;;;;17.83;89.79;93807.44;5062537;28;20032;-81
2022/08/24 01:36:33;;;;;;;18.67;12.65;;;;;;;17.88;89.38;93804.44;5062690;28;20020;-81
2022/08/24 01:39:08;;;;;;;25.45;14.32;;;;;;;17.93;89.11;93800.66;5062835;28;20033;-81
2022/08/24 01:41:34;;;;;;;22.48;13.68;;;;;;;17.98;88.79;93805.75;5062785;28;20046;-82
2022/08/24 01:43:59;;;;;;;24.10;13.70;;;;;;;17.99;88.01;93810.00;5062646;28;20021;-82
2022/08/24 01:46:25;;;;;;;26.42;15.43;;;;;;;17.93;87.90;93811.44;5062847;28;20024;-82
2022/08/24 01:48:51;;;;;;;21.25;15.43;;;;;;;17.91;87.72;93806.41;5062704;28;20044;-82
2022/08/24 01:51:16;;;;;;;22.67;15.68;;;;;;;17.92;87.29;93807.19;5062689;28;20052;-81
2022/08/24 01:53:42;;;;;;;28.38;14.73;;;;;;;17.88;86.61;93799.03;5062334;28;20025;-81
2022/08/24 01:56:10;;;;;;;23.65;14.02;;;;;;;17.86;86.58;93805.94;5062646;28;20025;-82
2022/08/24 01:58:43;;;;;;;28.15;12.88;;;;;;;17.84;86.05;93798.97;5062589;28;20020;-80
2022/08/24 02:01:08;;;;;;;27.17;15.00;;;;;;;17.78;85.40;93803.09;5061323;28;20028;-80
2022/08/24 02:03:34;;;;;;;22.85;15.85;;;;;;;17.74;85.74;93801.47;5062679;28;20029;-81
2022/08/24 02:05:59;;;;;;;30.05;14.68;;;;;;;17.70;85.69;93808.72;5062503;28;20032;-79
2022/08/24 02:08:25;;;;;;;25.92;14.48;;;;;;;17.66;85.98;93814.03;5066534;28;20025;-80
2022/08/24 02:10:50;;;;;;;26.33;13.93;;;;;;;17.65;85.71;93817.88;5066609;28;20028;-80
2022/08/24 02:13:16;;;;;;;26.45;14.80;;;;;;;17.62;85.37;93823.97;5066339;28;20161;-79
2022/08/24 02:15:41;;;;;;;25.95;15.88;;;;;;;17.48;86.12;93829.88;5066401;28;20035;-81
2022/08/24 02:18:10;;;;;;;24.90;15.35;;;;;;;17.38;87.16;93830.47;5066355;28;20029;-81
2022/08/24 02:20:36;;;;;;;30.67;17.45;;;;;;;17.34;87.94;93830.41;5066434;28;20033;-80
2022/08/24 02:23:03;;;;;;;33.75;16.15;;;;;;;17.30;87.93;93834.97;5066391;28;20063;-80
2022/08/24 02:25:29;;;;;;;24.17;16.25;;;;;;;17.30;88.23;93845.75;5065992;28;20033;-80
2022/08/24 02:27:57;;;;;;;29.48;14.88;;;;;;;17.27;88.21;93842.97;5066078;28;20025;-80
2022/08/24 02:30:23;;;;;;;27.50;14.30;;;;;;;17.23;88.71;93835.59;5066066;28;20088;-80
2022/08/24 02:32:48;;;;;;;22.83;13.52;;;;;;;17.24;88.06;93842.53;5066173;28;20020;-80
2022/08/24 02:35:15;;;;;;;19.75;13.32;;;;;;;17.25;88.18;93838.69;5065955;28;20036;-81
2022/08/24 02:37:43;;;;;;;23.45;14.63;;;;;;;17.27;87.77;93841.03;5065921;28;20094;-81
2022/08/24 02:40:10;;;;;;;22.90;14.25;;;;;;;17.29;87.85;93846.84;5065927;28;20051;-81
2022/08/24 02:42:36;;;;;;;23.52;14.25;;;;;;;17.33;87.33;93850.41;5066081;28;20021;-81
2022/08/24 02:45:02;;;;;;;22.27;13.48;;;;;;;17.35;87.44;93845.44;5065732;28;20285;-81
2022/08/24 02:47:28;;;;;;;20.77;12.38;;;;;;;17.40;87.04;93849.75;5065915;28;20064;-81
2022/08/24 02:49:53;;;;;;;21.95;14.25;;;;;;;17.45;87.15;93852.16;5065722;28;20059;-80
2022/08/24 02:52:19;;;;;;;21.17;12.10;;;;;;;17.49;86.89;93846.84;5064711;28;20304;-79
2022/08/24 02:54:45;;;;;;;21.23;12.90;;;;;;;17.49;86.79;93844.16;5065533;28;20032;-79
2022/08/24 02:57:10;;;;;;;19.65;13.45;;;;;;;17.52;86.75;93851.50;5065471;28;20029;-80
2022/08/24 02:59:36;;;;;;;23.98;15.13;;;;;;;17.58;86.39;93855.47;5064563;28;20037;-79
2022/08/24 03:02:01;;;;;;;26.38;15.05;;;;;;;17.52;86.47;93851.50;5065530;28;20099;-80
2022/08/24 03:04:27;;;;;;;23.48;15.32;;;;;;;17.53;86.78;93848.47;5065375;28;20074;-80
2022/08/24 03:06:52;;;;;;;27.25;14.93;;;;;;;17.51;87.42;93849.97;5064233;28;20099;-80
2022/08/24 03:09:18;;;;;;;25.48;16.58;;;;;;;17.42;87.74;93845.59;5065534;28;20231;-80
2022/08/24 03:11:43;;;;;;;26.02;14.57;;;;;;;17.45;87.57;93842.16;5065455;28;20315;-80
2022/08/24 03:14:09;;;;;;;23.05;14.35;;;;;;;17.42;87.57;93853.66;5065162;28;20315;-81
2022/08/24 03:16:35;;;;;;;24.15;12.93;;;;;;;17.40;87.24;93849.75;5065355;28;20040;-80
2022/08/24 03:19:00;;;;;;;11.60;8.05;;;;;;;17.37;85.76;93845.84;5064853;28;20037;-80
2022/08/24 03:21:27;;;;;;;16.58;10.13;;;;;;;17.37;85.87;93843.16;5065236;28;20096;-80
2022/08/24 03:23:52;;;;;;;17.05;10.75;;;;;;;17.37;86.43;93848.56;5065237;28;20084;-80
2022/08/24 03:26:18;;;;;;;20.58;9.90;;;;;;;17.43;86.40;93846.34;5064983;28;20036;-80
2022/08/24 03:28:43;;;;;;;15.63;8.85;;;;;;;17.42;85.78;93853.66;5064357;28;20036;-80
2022/08/24 03:31:09;;;;;;;19.17;9.18;;;;;;;17.44;85.55;93845.22;5063828;28;20082;-80
2022/08/24 03:33:34;;;;;;;11.63;7.55;;;;;;;17.48;85.00;93858.75;5063850;28;20090;-80
2022/08/24 03:36:00;;;;;;;12.82;6.38;;;;;;;17.44;84.42;93862.16;5064859;28;20040;-80
2022/08/24 03:38:25;;;;;;;11.55;6.38;;;;;;;17.43;84.67;93855.22;5064676;28;20028;-81
2022/08/24 03:40:51;;;;;;;7.95;5.72;;;;;;;17.47;84.77;93851.81;5064859;28;20323;-81
2022/08/24 03:46:01;;;;;;;8.90;5.85;;;;;;;17.43;84.52;93857.91;5064567;28;20223;-81
2022/08/24 03:48:28;;;;;;;9.65;5.85;;;;;;;17.48;84.27;93866.84;5064655;28;20021;-81
2022/08/24 03:50:54;;;;;;;9.60;6.88;;;;;;;17.50;83.91;93870.72;5064169;28;20155;-82
2022/08/24 03:53:19;;;;;;;9.32;6.13;;;;;;;17.58;84.09;93872.41;5064331;28;20025;-79
2022/08/24 03:55:45;;;;;;;12.18;6.90;;;;;;;17.54;84.67;93870.81;5064366;28;20020;-79
2022/08/24 03:58:10;;;;;;;11.93;6.40;;;;;;;17.49;85.14;93871.09;5064312;28;20084;-79
2022/08/24 04:00:41;;;;;;;11.43;7.10;;;;;;;17.44;85.20;93867.56;5064385;28;20331;-80
2022/08/24 04:03:07;;;;;;;14.57;6.32;;;;;;;17.43;84.96;93868.69;5064520;28;20017;-79
2022/08/24 04:05:32;;;;;;;11.65;6.93;;;;;;;17.42;85.51;93880.59;5064009;28;20017;-80
2022/08/24 04:07:58;;;;;;;14.65;7.22;;;;;;;17.43;85.78;93866.00;5064228;28;20044;-80
2022/08/24 04:10:23;;;;;;;9.70;5.90;;;;;;;17.44;85.72;93877.53;5064059;28;20031;-80
2022/08/24 04:12:49;;;;;;;8.05;6.32;;;;;;;17.48;85.96;93877.63;5064058;28;20028;-80
2022/08/24 04:15:15;;;;;;;9.65;6.05;;;;;;;17.52;84.97;93871.16;5063788;28;20024;-82
2022/08/24 04:17:40;;;;;;;10.68;5.88;;;;;;;17.47;84.80;93879.53;5063895;28;20021;-82
2022/08/24 04:20:06;;;;;;;12.48;7.03;;;;;;;17.48;84.81;93875.69;5062908;28;20025;-82
2022/08/24 04:22:35;;;;;;;11.70;7.00;;;;;;;17.54;85.26;93876.97;5062618;28;20033;-81
2022/08/24 04:25:02;;;;;;;9.82;5.63;;;;;;;17.61;84.88;93882.50;5063737;28;20189;-81
2022/08/24 04:27:27;;;;;;;19.30;5.43;;;;;;;17.69;83.74;93861.06;5062764;28;20044;-81
2022/08/24 04:29:53;;;;;;;8.10;5.38;;;;;;;17.77;83.28;93868.16;5062901;28;20024;-81
2022/08/24 04:32:18;;;;;;;10.27;6.00;;;;;;;17.82;83.42;93876.72;5063774;28;20025;-81
2022/08/24 04:34:45;;;;;;;6.38;5.38;;;;;;;17.91;82.05;93878.41;5063586;28;20020;-81
2022/08/24 04:37:12;;;;;;;11.55;6.13;;;;;;;17.94;81.17;93878.50;5063769;28;20254;-82
2022/08/24 04:39:38;;;;;;;13.38;6.47;;;;;;;18.03;82.01;93886.34;5063690;28;20020;-82
2022/08/24 04:42:04;;;;;;;7.63;5.65;;;;;;;18.11;82.04;93881.84;5063607;28;20071;-82
2022/08/24 04:44:30;;;;;;;7.60;5.00;;;;;;;18.17;81.18;93880.41;5063180;28;20075;-82
2022/08/24 04:46:56;;;;;;;8.35;5.47;;;;;;;18.18;80.37;93881.97;5063377;28;20099;-82
2022/08/24 04:49:21;;;;;;;6.63;4.38;;;;;;;18.18;79.86;93882.75;5063253;28;20025;-84
2022/08/24 04:51:47;;;;;;;6.50;5.07;;;;;;;18.20;80.89;93885.88;5062966;28;20052;-82
2022/08/24 04:54:12;;;;;;;9.68;6.28;;;;;;;18.29;80.11;93888.31;5063250;28;20035;-81
2022/08/24 04:56:38;;;;;;;7.57;5.32;;;;;;;18.39;80.16;93874.22;5063272;28;20025;-81
2022/08/24 04:59:04;;;;;;;7.55;5.32;;;;;;;18.50;80.49;93879.78;5063266;28;20031;-81
2022/08/24 05:01:33;;;;;;;7.72;4.85;;;;;;;18.63;78.77;93880.38;5063097;28;20032;-80
2022/08/24 05:03:59;;;;;;;6.60;4.38;;;;;;;18.62;77.27;93873.38;5062994;28;20075;-80
2022/08/24 05:06:27;;;;;;;6.78;4.50;;;;;;;18.68;77.08;93882.72;5062931;28;20037;-81
2022/08/24 05:08:54;;;;;;;9.20;4.88;;;;;;;18.73;78.61;93877.03;5063158;28;20028;-80
2022/08/24 05:11:21;;;;;;;6.53;4.97;;;;;;;18.81;80.36;93878.72;5063098;28;20090;-81
2022/08/24 05:13:47;;;;;;;7.05;4.00;;;;;;;18.81;74.73;93878.72;5062861;28;20049;-80
2022/08/24 05:16:15;;;;;;;6.68;4.60;;;;;;;18.91;75.04;93871.91;5062844;28;20029;-80
2022/08/24 05:18:41;;;;;;;8.23;4.85;;;;;;;18.94;74.68;93868.47;5062931;28;20025;-80
2022/08/24 05:21:11;;;;;;;5.82;4.28;;;;;;;18.98;74.74;93872.00;5062850;28;20029;-80
2022/08/24 05:23:37;;;;;;;7.25;4.38;;;;;;;19.07;76.28;93873.66;5063208;28;20203;-81
2022/08/24 05:26:08;;;;;;;9.68;5.40;;;;;;;19.14;75.67;93871.06;5062650;28;20025;-82
2022/08/24 05:28:34;;;;;;;10.02;4.18;;;;;;;19.20;76.98;93869.59;5062714;28;20027;-83
2022/08/24 05:31:08;;;;;;;5.93;3.88;;;;;;;19.23;74.53;93876.94;5062562;28;20084;-81
2022/08/24 05:33:33;;;;;;;6.68;4.40;;;;;;;19.27;75.25;93868.88;5061399;28;20021;-83
2022/08/24 05:35:59;;;;;;;7.25;4.80;;;;;;;19.29;75.60;93864.66;5062717;28;20082;-82
2022/08/24 05:38:24;;;;;;;8.93;5.40;;;;;;;19.41;78.17;93871.75;5062430;28;20021;-81
2022/08/24 05:40:50;;;;;;;7.35;5.18;;;;;;;19.50;76.68;93871.47;5062606;28;20042;-81
2022/08/24 05:43:15;;;;;;;7.25;3.75;;;;;;;19.60;73.19;93862.69;5062668;28;20025;-82
2022/08/24 05:45:43;;;;;;;5.00;3.70;;;;;;;19.60;72.69;93860.78;5062588;28;20028;-80
2022/08/24 05:48:08;;;;;;;6.25;4.45;;;;;;;19.63;73.43;93857.31;5062455;28;20025;-80
2022/08/24 05:50:33;;;;;;;8.60;4.63;;;;;;;19.72;74.88;93859.78;5062685;28;20108;-81
2022/08/24 05:52:59;;;;;;;9.40;4.75;;;;;;;19.80;73.62;93852.50;5062375;28;20053;-81
2022/08/24 05:55:24;;;;;;;7.53;4.10;;;;;;;19.79;72.49;93867.19;5062242;28;20339;-81
2022/08/24 05:57:50;;;;;;;6.35;4.22;;;;;;;19.77;73.17;93851.31;5062549;28;20021;-80
2022/08/24 06:00:16;;;;;;;8.57;5.03;;;;;;;19.78;73.36;93865.63;5062231;28;20315;-80
2022/08/24 06:02:42;;;;;;;12.65;4.95;;;;;;;19.83;73.29;93857.94;5062259;28;20029;-80
2022/08/24 06:05:08;;;;;;;6.95;4.53;;;;;;;19.83;72.08;93860.66;5062425;28;20013;-73
2022/08/24 06:07:34;;;;;;;9.07;5.57;;;;;;;19.78;73.94;93866.41;5062305;28;20217;-72
2022/08/24 06:10:00;;;;;;;7.38;4.43;;;;;;;19.72;72.80;93854.38;5061995;28;20070;-72
2022/08/24 06:12:25;;;;;;;11.15;4.53;;;;;;;19.69;73.42;93868.59;5061813;28;20025;-72
2022/08/24 06:14:51;;;;;;;7.93;5.00;;;;;;;19.72;72.40;93867.09;5061784;28;20021;-72
2022/08/24 06:17:16;;;;;;;14.63;5.47;;;;;;;19.76;73.92;93867.91;5061798;28;20316;-72
2022/08/24 06:19:42;;;;;;;5.97;4.50;;;;;;;19.80;73.73;93866.81;5061993;28;20017;-72
2022/08/24 06:22:09;;;;;;;16.23;5.90;;;;;;;19.90;72.83;93861.88;5062122;28;20055;-72
2022/08/24 06:27:19;;;;;;;12.13;5.60;;;;;;;19.96;72.64;93871.19;5062043;28;20035;-82
2022/08/24 06:29:45;;;;;;;8.82;6.55;;;;;;;20.02;73.45;93867.78;5062060;28;20024;-84
2022/08/24 06:32:11;;;;;;;10.65;5.78;;;;;;;20.09;71.40;93877.91;5061673;28;20025;-78
2022/08/24 06:34:38;;;;;;;12.57;6.15;;;;;;;20.19;72.34;93869.09;5060814;28;20033;-78
2022/08/24 06:37:04;;;;;;;10.98;6.68;;;;;;;20.26;73.00;93873.03;5061915;28;20048;-85
2022/08/24 06:39:29;;;;;;;12.15;5.20;;;;;;;20.21;69.50;93864.09;5061893;28;20025;-79
2022/08/24 06:41:55;;;;;;;9.63;4.97;;;;;;;20.12;69.71;93869.03;5061851;28;20036;-79
2022/08/24 06:44:20;;;;;;;12.65;6.55;;;;;;;20.18;71.01;93872.19;5061749;28;20021;-79
2022/08/24 06:46:46;;;;;;;8.50;5.40;;;;;;;20.18;69.29;93869.47;5061758;28;20032;-78
2022/08/24 06:49:11;;;;;;;6.88;4.75;;;;;;;20.23;70.22;93871.81;5061200;28;20032;-79
2022/08/24 06:51:36;;;;;;;12.75;5.82;;;;;;;20.26;70.24;93879.22;5061855;28;20044;-79
2022/08/24 06:54:02;;;;;;;11.40;5.75;;;;;;;20.35;69.10;93885.09;5064829;28;20028;-78
2022/08/24 06:56:28;;;;;;;9.43;5.43;;;;;;;20.46;69.10;93882.47;5065597;28;20405;-78
2022/08/24 06:58:53;;;;;;;7.80;6.07;;;;;;;20.48;69.46;93880.16;5065569;28;20028;-78
2022/08/24 07:01:23;;;;;;;9.50;4.97;;;;;;;20.54;68.98;93884.06;5065554;28;20017;-78
2022/08/24 07:03:49;;;;;;;8.00;4.88;;;;;;;20.63;68.19;93886.47;5065365;28;20083;-78
2022/08/24 07:06:14;;;;;;;10.13;6.00;;;;;;;20.76;68.46;93889.66;5065388;28;20013;-78
2022/08/24 07:08:41;;;;;;;9.57;4.80;;;;;;;20.79;67.98;93886.22;5065427;28;20025;-78
2022/08/24 07:11:08;;;;;;;9.00;5.75;;;;;;;20.86;68.90;93891.66;5065199;28;20092;-78
2022/08/24 07:13:33;;;;;;;9.18;5.45;;;;;;;20.91;67.17;93894.03;5065118;28;20036;-78
2022/08/24 07:15:59;;;;;;;9.77;5.88;;;;;;;20.91;66.80;93885.91;5065248;28;20066;-78
2022/08/24 07:18:25;;;;;;;8.77;5.55;;;;;;;20.95;66.73;93896.75;5065053;28;20211;-78
2022/08/24 07:20:51;;;;;;;8.30;5.43;;;;;;;21.01;68.03;93887.13;5065065;28;20029;-79
2022/08/24 07:23:18;;;;;;;10.32;5.70;;;;;;;21.00;66.36;93899.09;5065058;28;20017;-79
2022/08/24 07:25:45;;;;;;;15.43;6.35;;;;;;;21.06;67.82;93910.38;5064926;28;20025;-78
2022/08/24 07:28:10;;;;;;;12.68;5.57;;;;;;;21.10;65.69;93906.50;5064871;28;20024;-78
2022/08/24 07:30:36;;;;;;;10.80;6.68;;;;;;;21.16;65.82;93906.94;5064889;28;20212;-78
2022/08/24 07:33:02;;;;;;;11.05;5.18;;;;;;;21.23;66.26;93901.56;5063628;28;20045;-78
2022/08/24 07:35:31;;;;;;;10.52;5.72;;;;;;;21.28;65.55;93905.84;5064625;28;20071;-78
2022/08/24 07:37:57;;;;;;;9.45;6.07;;;;;;;21.32;66.08;93903.94;5064734;28;20028;-78
2022/08/24 07:40:24;;;;;;;16.25;5.68;;;;;;;21.39;65.08;93893.91;5064648;28;20028;-78
2022/08/24 07:42:52;;;;;;;7.97;5.35;;;;;;;21.54;65.19;93900.19;5064499;28;20319;-78
2022/08/24 07:45:18;;;;;;;11.98;6.07;;;;;;;21.66;66.42;93893.63;5064707;28;20295;-78
2022/08/24 07:47:44;;;;;;;8.13;5.07;;;;;;;21.77;64.87;93899.09;5064532;28;20124;-78
2022/08/24 07:50:12;;;;;;;11.00;6.43;;;;;;;21.85;64.08;93892.53;5064302;28;20081;-78
2022/08/24 07:52:38;;;;;;;12.70;5.88;;;;;;;21.89;62.91;93895.25;5064760;28;20027;-78
2022/08/24 07:55:05;;;;;;;9.85;5.57;;;;;;;21.98;63.96;93895.66;5064454;28;20278;-78
2022/08/24 07:57:31;;;;;;;10.57;5.30;;;;;;;22.19;63.38;93890.25;5063021;28;20059;-78
2022/08/24 07:59:59;;;;;;;13.98;5.32;;;;;;;22.33;62.47;93884.09;5064278;28;20024;-78
2022/08/24 08:02:26;;;;;;;9.02;5.57;;;;;;;22.43;62.39;93877.13;5064452;28;20033;-78
2022/08/24 08:04:54;;;;;;;11.25;5.22;;;;;;;22.68;61.99;93884.50;5061797;28;20025;-78
2022/08/24 08:07:19;;;;;;;6.85;4.90;;;;;;;22.83;58.17;93877.84;5063998;28;20032;-78
2022/08/24 08:09:45;;;;;;;6.20;4.50;;;;;;;22.89;57.86;93875.53;5064083;28;20092;-78
2022/08/24 08:12:11;;;;;;;8.05;4.30;;;;;;;23.03;58.49;93876.28;5064085;28;20036;-78
2022/08/24 08:14:37;;;;;;;6.53;3.97;;;;;;;23.22;58.46;93882.47;5064011;28;20308;-78
2022/08/24 08:17:03;;;;;;;8.75;4.68;;;;;;;23.36;57.04;93879.69;5063889;28;20032;-79
2022/08/24 08:19:28;;;;;;;7.60;4.00;;;;;;;23.40;58.02;93866.84;5063741;28;20028;-78
2022/08/24 08:24:42;;;;;;;7.85;4.88;;;;;;;23.31;57.71;93871.97;5063771;28;20023;-78
2022/08/24 08:27:08;;;;;;;6.20;4.28;;;;;;;23.37;55.76;93873.09;5063696;28;20163;-78
2022/08/24 08:29:34;;;;;;;7.68;4.53;;;;;;;23.36;57.94;93876.22;5064005;28;20215;-78
2022/08/24 08:32:00;;;;;;;5.90;4.13;;;;;;;23.30;56.57;93881.28;5063635;28;20021;-78
2022/08/24 08:34:26;;;;;;;8.80;5.05;;;;;;;23.26;57.57;93875.06;5063501;28;20048;-78
2022/08/24 08:36:54;;;;;;;7.20;5.20;;;;;;;23.28;58.09;93874.69;5063283;28;20020;-78
2022/08/24 08:39:21;;;;;;;9.77;5.40;;;;;;;23.30;57.63;93869.63;5063475;28;20052;-78
2022/08/24 08:41:59;;;;;;;10.45;5.18;;;;;;;23.26;57.52;93877.03;5063687;28;20032;-78
2022/08/24 08:44:43;;;;;;;8.68;4.93;;;;;;;23.28;57.71;93874.69;5063306;28;20028;-79
2022/08/24 08:47:47;;;;;;;10.15;4.60;;;;;;;23.30;57.30;93866.91;5063380;28;20024;-78
2022/08/24 08:50:39;;;;;;;10.40;4.55;;;;;;;23.39;57.64;93862.59;5062147;28;20216;-78
2022/08/24 08:53:16;;;;;;;9.93;4.53;;;;;;;23.51;55.41;93874.19;5054932;28;20053;-78
2022/08/24 08:55:51;;;;;;;7.53;4.30;;;;;;;23.57;57.69;93873.41;5063234;28;20041;-79
2022/08/24 08:58:23;;;;;;;15.05;4.85;;;;;;;23.60;55.99;93875.31;5063192;28;20025;-79
2022/08/24 09:01:09;;;;;;;7.50;4.70;;;;;;;23.70;56.04;93879.19;5062935;28;20024;-79
2022/08/24 09:03:35;;;;;;;7.90;4.15;;;;;;;23.82;56.83;93880.72;5063327;28;20219;-79
2022/08/24 09:06:17;;;;;;;9.90;4.05;;;;;;;24.05;55.97;93885.63;5062886;28;20032;-79
2022/08/24 09:09:04;;;;;;;7.93;4.43;;;;;;;24.23;53.74;93883.56;5063031;28;20231;-79
2022/08/24 09:11:44;;;;;;;6.13;4.13;;;;;;;24.24;53.41;93884.31;5062754;28;20033;-79
2022/08/24 09:15:05;;;;;;;7.40;3.90;;;;;;;24.44;54.63;93884.56;5062741;28;20029;-79
2022/08/24 09:17:39;;;;;;;6.72;4.15;;;;;;;24.65;53.67;93882.88;5040994;28;20033;-79
2022/08/24 09:20:17;;;;;;;8.80;5.32;;;;;;;24.80;53.79;93868.72;5041067;28;20105;-79
2022/08/24 09:22:48;;;;;;;7.97;3.72;;;;;;;24.98;52.27;93875.97;5056739;28;20075;-79
2022/08/24 09:25:31;;;;;;;8.38;3.70;;;;;;;25.17;51.66;93880.81;5062787;28;20016;-79
2022/08/24 09:28:02;;;;;;;5.78;4.57;;;;;;;25.20;51.20;93871.84;5062682;28;20024;-79
2022/08/24 09:30:41;;;;;;;11.25;3.80;;;;;;;25.29;51.32;93868.66;5062712;28;20314;-79
2022/08/24 09:33:25;;;;;;;7.40;3.47;;;;;;;25.40;50.37;93860.34;5062602;28;20028;-79
2022/08/24 09:35:50;;;;;;;6.60;4.40;;;;;;;25.55;50.70;93852.78;5062759;28;20103;-79
2022/08/24 09:38:27;;;;;;;9.02;3.85;;;;;;;25.68;49.94;93851.03;5062483;28;20025;-79
2022/08/24 09:41:02;;;;;;;9.25;4.13;;;;;;;25.82;48.62;93845.38;5062238;28;20025;-79
2022/08/24 09:43:33;;;;;;;11.25;4.20;;;;;;;25.91;49.10;93855.84;5062464;28;20195;-79
2022/08/24 09:46:21;;;;;;;5.40;3.80;;;;;;;26.05;47.54;93843.91;5062614;28;20266;-79
2022/08/24 09:49:05;;;;;;;6.43;3.70;;;;;;;26.08;45.42;93845.06;5062437;28;20029;-79
2022/08/24 09:51:51;;;;;;;5.43;3.25;;;;;;;26.12;46.25;93835.63;5062117;28;20041;-79
2022/08/24 09:54:47;;;;;;;10.20;3.70;;;;;;;26.11;47.60;93839.53;5060890;28;20339;-79
2022/08/24 09:57:16;;;;;;;11.55;3.75;;;;;;;26.12;46.69;93835.63;5062274;28;20031;-79
2022/08/24 09:59:47;;;;;;;9.07;3.15;;;;;;;26.18;47.10;93833.97;5062363;28;20288;-79
2022/08/24 10:02:26;;;;;;;5.22;3.30;;;;;;;26.29;46.91;93816.66;5062379;28;20032;-79
2022/08/24 10:05:18;;;;;;;5.68;3.65;;;;;;;26.33;46.44;93820.09;5062432;28;20028;-79
2022/08/24 10:08:21;;;;;;;6.10;3.90;;;;;;;26.31;45.21;93815.03;5062268;28;20036;-79
2022/08/24 10:11:05;;;;;;;6.65;3.15;;;;;;;26.31;45.22;93820.50;5040354;28;20033;-79
2022/08/24 10:13:51;;;;;;;5.15;3.38;;;;;;;26.29;44.95;93811.19;5060866;28;20048;-79
2022/08/24 10:16:52;;;;;;;6.53;3.55;;;;;;;26.25;44.73;93805.00;5062333;28;20099;-79
2022/08/24 10:19:39;;;;;;;7.65;3.25;;;;;;;26.23;45.15;93799.97;5062146;28;20036;-79
2022/08/24 10:22:35;;;;;;;8.57;3.47;;;;;;;26.33;45.70;93795.50;5062219;28;20017;-79
2022/08/24 10:25:29;;;;;;;5.75;3.25;;;;;;;26.37;44.44;93791.53;5060825;28;20074;-79
2022/08/24 10:28:19;;;;;;;6.68;3.83;;;;;;;26.51;45.09;93789.75;5063461;28;20028;-79
2022/08/24 10:30:54;;;;;;;7.68;3.20;;;;;;;26.62;45.08;93801.28;5064660;28;20037;-79
2022/08/24 10:33:33;;;;;;;5.45;3.70;;;;;;;26.75;45.43;93806.94;5065718;28;20035;-79
2022/08/24 10:36:38;;;;;;;12.77;3.63;;;;;;;26.80;46.42;93801.75;5065698;28;20330;-79
2022/08/24 10:45:11;;;;;;;5.05;3.33;;;;;;;26.98;45.53;93803.38;5065783;28;20036;-79
2022/08/24 10:47:53;;;;;;;9.95;3.60;;;;;;;27.18;44.53;93795.19;5065638;28;20036;-78
2022/08/24 10:50:34;;;;;;;8.02;3.95;;;;;;;27.25;43.47;93791.56;5065334;28;20239;-80
2022/08/24 10:53:24;;;;;;;9.40;3.80;;;;;;;27.16;44.20;93794.84;5065690;28;20047;-79
2022/08/24 10:56:13;;;;;;;9.13;3.30;;;;;;;27.15;43.61;93802.28;5065404;28;20017;-80
2022/08/24 10:58:43;;;;;;;7.90;3.65;;;;;;;27.21;43.54;93800.59;5065449;28;20096;-79
2022/08/24 11:01:14;;;;;;;9.88;4.07;;;;;;;27.32;43.95;93797.66;5065251;28;20376;-79
2022/08/24 11:03:52;;;;;;;7.30;3.47;;;;;;;27.41;43.49;93788.88;5065448;28;20066;-79
2022/08/24 11:06:18;;;;;;;5.25;3.10;;;;;;;27.44;43.61;93796.25;5064106;28;20041;-79
2022/08/24 11:09:15;;;;;;;8.70;3.40;;;;;;;27.53;43.13;93798.41;5065162;28;20307;-78
2022/08/24 11:11:45;;;;;;;4.68;3.45;;;;;;;27.55;43.13;93794.06;5064482;28;20120;-78
2022/08/24 11:14:24;;;;;;;10.45;4.20;;;;;;;27.70;43.15;93788.28;5065040;28;20227;-78
2022/08/24 11:16:50;;;;;;;8.25;3.03;;;;;;;27.75;43.34;93788.53;5065120;28;20025;-79
2022/08/24 11:19:24;;;;;;;7.80;4.15;;;;;;;27.83;43.13;93783.69;5064979;28;20032;-79
2022/08/24 11:21:53;;;;;;;5.22;3.67;;;;;;;27.93;43.28;93781.94;5063401;28;20033;-79
2022/08/24 11:24:26;;;;;;;9.48;3.67;;;;;;;27.97;43.14;93774.41;5064800;28;20017;-79
2022/08/24 11:27:07;;;;;;;11.50;4.57;;;;;;;28.09;43.04;93778.41;5064805;28;20052;-79
2022/08/24 11:29:57;;;;;;;5.65;4.10;;;;;;;28.17;42.39;93783.31;5064814;28;20036;-79
2022/08/24 11:32:38;;;;;;;14.65;4.00;;;;;;;28.30;42.88;93783.41;5062121;28;20033;-79
2022/08/24 11:35:31;;;;;;;5.10;3.97;;;;;;;28.39;41.66;93771.81;5064969;28;20040;-79
2022/08/24 11:38:18;;;;;;;8.48;3.88;;;;;;;28.49;43.11;93773.53;5064642;28;20291;-79
2022/08/24 11:41:15;;;;;;;13.05;3.65;;;;;;;28.70;41.41;93768.72;5064604;28;20050;-79
2022/08/24 11:43:43;;;;;;;8.73;3.90;;;;;;;28.69;41.55;93772.69;5064068;28;20228;-79
2022/08/24 11:46:22;;;;;;;10.80;3.97;;;;;;;28.69;40.70;93769.94;5064547;28;20032;-79
2022/08/24 11:49:03;;;;;;;6.38;3.80;;;;;;;28.75;41.23;93763.50;5064541;28;20063;-79
2022/08/24 11:51:41;;;;;;;7.00;3.50;;;;;;;28.71;41.11;93771.03;5064148;28;20059;-79
2022/08/24 11:54:24;;;;;;;5.35;3.50;;;;;;;28.72;41.28;93774.53;5064483;28;20029;-79
2022/08/24 11:57:11;;;;;;;5.40;3.85;;;;;;;28.70;41.84;93771.47;5064260;28;20078;-79
2022/08/24 11:59:45;;;;;;;8.13;3.65;;;;;;;28.64;40.34;93767.72;5064334;28;20021;-79